sensor_id;sensor_type;location;lat;lon;timestamp;temperature;humidity
62555;DHT22;48610;52.144;8.624;2023-05-17T00:02:33;10.30;99.90
62555;DHT22;48610;52.144;8.624;2023-05-17T00:05:33;10.40;99.90
62555;DHT22;48610;52.144;8.624;2023-05-17T00:08:34;10.40;99.90
62555;DHT22;48610;52.144;8.624;2023-05-17T00:11:34;10.50;99.90
62555;DHT22;48610;52.144;8.624;2023-05-17T00:14:35;10.40;99.90
62555;DHT22;48610;52.144;8.624;2023-05-17T00:17:36;10.30;99.90
62555;DHT22;48610;52.144;8.624;2023-05-17T00:20:37;10.20;99.90
62555;DHT22;48610;52.144;8.624;2023-05-17T00:23:37;10.10;99.90
62555;DHT22;48610;52.144;8.624;2023-05-17T00:26:38;10.00;99.90
62555;DHT22;48610;52.144;8.624;2023-05-17T00:29:38;10.20;99.90
62555;DHT22;48610;52.144;8.624;2023-05-17T00:32:39;10.20;99.90
62555;DHT22;48610;52.144;8.624;2023-05-17T00:35:39;10.20;99.90
62555;DHT22;48610;52.144;8.624;2023-05-17T00:38:40;10.10;99.90
62555;DHT22;48610;52.144;8.624;2023-05-17T00:41:41;10.00;99.90
62555;DHT22;48610;52.144;8.624;2023-05-17T00:44:41;10.00;99.90
62555;DHT22;48610;52.144;8.624;2023-05-17T00:47:42;10.00;99.90
62555;DHT22;48610;52.144;8.624;2023-05-17T00:50:43;10.00;99.90
62555;DHT22;48610;52.144;8.624;2023-05-17T00:53:43;9.90;99.90
62555;DHT22;48610;52.144;8.624;2023-05-17T00:56:44;9.90;99.90
62555;DHT22;48610;52.144;8.624;2023-05-17T00:59:46;9.90;99.90
62555;DHT22;48610;52.144;8.624;2023-05-17T01:02:47;9.90;99.90
62555;DHT22;48610;52.144;8.624;2023-05-17T01:05:49;9.80;99.90
62555;DHT22;48610;52.144;8.624;2023-05-17T01:08:50;9.70;99.90
62555;DHT22;48610;52.144;8.624;2023-05-17T01:15:15;9.40;99.90
62555;DHT22;48610;52.144;8.624;2023-05-17T01:18:38;9.40;99.90
62555;DHT22;48610;52.144;8.624;2023-05-17T01:28:07;9.40;99.90
62555;DHT22;48610;52.144;8.624;2023-05-17T01:31:10;9.30;99.90
62555;DHT22;48610;52.144;8.624;2023-05-17T01:34:11;9.20;99.90
62555;DHT22;48610;52.144;8.624;2023-05-17T01:37:12;9.20;99.90
62555;DHT22;48610;52.144;8.624;2023-05-17T01:40:12;9.20;99.90
62555;DHT22;48610;52.144;8.624;2023-05-17T01:46:39;9.20;99.90
62555;DHT22;48610;52.144;8.624;2023-05-17T01:49:45;9.20;99.90
62555;DHT22;48610;52.144;8.624;2023-05-17T01:52:54;9.20;99.90
62555;DHT22;48610;52.144;8.624;2023-05-17T01:56:03;9.20;99.90
62555;DHT22;48610;52.144;8.624;2023-05-17T01:59:06;9.30;99.90
62555;DHT22;48610;52.144;8.624;2023-05-17T02:02:08;9.40;99.90
62555;DHT22;48610;52.144;8.624;2023-05-17T02:05:09;9.30;99.90
62555;DHT22;48610;52.144;8.624;2023-05-17T02:08:10;9.30;99.90
62555;DHT22;48610;52.144;8.624;2023-05-17T02:11:10;9.40;99.90
62555;DHT22;48610;52.144;8.624;2023-05-17T02:14:11;9.40;99.90
62555;DHT22;48610;52.144;8.624;2023-05-17T02:17:11;9.30;99.90
62555;DHT22;48610;52.144;8.624;2023-05-17T02:20:12;9.30;99.90
62555;DHT22;48610;52.144;8.624;2023-05-17T02:23:13;9.30;99.90
62555;DHT22;48610;52.144;8.624;2023-05-17T02:26:13;9.30;99.90
62555;DHT22;48610;52.144;8.624;2023-05-17T02:29:14;9.20;99.90
62555;DHT22;48610;52.144;8.624;2023-05-17T02:32:15;9.30;99.90
62555;DHT22;48610;52.144;8.624;2023-05-17T02:35:15;9.30;99.90
62555;DHT22;48610;52.144;8.624;2023-05-17T02:38:16;9.30;99.90
62555;DHT22;48610;52.144;8.624;2023-05-17T02:41:16;9.30;99.90
62555;DHT22;48610;52.144;8.624;2023-05-17T02:44:17;9.40;99.90
62555;DHT22;48610;52.144;8.624;2023-05-17T02:47:18;9.40;99.90
62555;DHT22;48610;52.144;8.624;2023-05-17T02:50:20;9.40;99.90
62555;DHT22;48610;52.144;8.624;2023-05-17T02:53:20;9.20;99.90
62555;DHT22;48610;52.144;8.624;2023-05-17T02:56:21;9.20;99.90
62555;DHT22;48610;52.144;8.624;2023-05-17T02:59:22;9.20;99.90
62555;DHT22;48610;52.144;8.624;2023-05-17T03:02:22;9.10;99.90
62555;DHT22;48610;52.144;8.624;2023-05-17T03:05:23;9.10;99.90
62555;DHT22;48610;52.144;8.624;2023-05-17T03:08:23;9.20;99.90
62555;DHT22;48610;52.144;8.624;2023-05-17T03:11:24;9.10;99.90
62555;DHT22;48610;52.144;8.624;2023-05-17T03:14:24;9.10;99.90
62555;DHT22;48610;52.144;8.624;2023-05-17T03:17:25;9.10;99.90
62555;DHT22;48610;52.144;8.624;2023-05-17T03:20:25;9.00;99.90
62555;DHT22;48610;52.144;8.624;2023-05-17T03:23:26;8.90;99.90
62555;DHT22;48610;52.144;8.624;2023-05-17T03:26:34;8.90;99.90
62555;DHT22;48610;52.144;8.624;2023-05-17T03:29:34;8.80;99.90
62555;DHT22;48610;52.144;8.624;2023-05-17T03:32:37;8.90;99.90
62555;DHT22;48610;52.144;8.624;2023-05-17T03:35:38;8.80;99.90
62555;DHT22;48610;52.144;8.624;2023-05-17T03:38:39;8.80;99.90
62555;DHT22;48610;52.144;8.624;2023-05-17T03:41:39;8.80;99.90
62555;DHT22;48610;52.144;8.624;2023-05-17T03:44:41;8.90;99.90
62555;DHT22;48610;52.144;8.624;2023-05-17T03:47:42;8.90;99.90
62555;DHT22;48610;52.144;8.624;2023-05-17T03:50:42;8.80;99.90
62555;DHT22;48610;52.144;8.624;2023-05-17T03:53:43;8.70;99.90
62555;DHT22;48610;52.144;8.624;2023-05-17T03:56:44;8.70;99.90
62555;DHT22;48610;52.144;8.624;2023-05-17T03:59:49;8.80;99.90
62555;DHT22;48610;52.144;8.624;2023-05-17T04:02:50;8.80;99.90
62555;DHT22;48610;52.144;8.624;2023-05-17T04:05:51;8.70;99.90
62555;DHT22;48610;52.144;8.624;2023-05-17T04:08:51;8.70;99.90
62555;DHT22;48610;52.144;8.624;2023-05-17T04:11:54;8.60;99.90
62555;DHT22;48610;52.144;8.624;2023-05-17T04:14:54;8.60;99.90
62555;DHT22;48610;52.144;8.624;2023-05-17T04:17:55;8.60;99.90
62555;DHT22;48610;52.144;8.624;2023-05-17T04:20:55;8.70;99.90
62555;DHT22;48610;52.144;8.624;2023-05-17T04:23:56;8.70;99.90
62555;DHT22;48610;52.144;8.624;2023-05-17T04:26:57;8.80;99.90
62555;DHT22;48610;52.144;8.624;2023-05-17T04:29:58;8.70;99.90
62555;DHT22;48610;52.144;8.624;2023-05-17T04:32:59;8.80;99.90
62555;DHT22;48610;52.144;8.624;2023-05-17T04:36:00;8.80;99.90
62555;DHT22;48610;52.144;8.624;2023-05-17T04:39:01;8.90;99.90
62555;DHT22;48610;52.144;8.624;2023-05-17T04:42:02;9.00;99.90
62555;DHT22;48610;52.144;8.624;2023-05-17T04:45:03;9.10;99.90
62555;DHT22;48610;52.144;8.624;2023-05-17T04:48:04;9.00;99.90
62555;DHT22;48610;52.144;8.624;2023-05-17T04:51:05;9.10;99.90
62555;DHT22;48610;52.144;8.624;2023-05-17T04:54:06;9.10;99.90
62555;DHT22;48610;52.144;8.624;2023-05-17T04:57:08;9.10;99.90
62555;DHT22;48610;52.144;8.624;2023-05-17T05:00:09;9.20;99.90
62555;DHT22;48610;52.144;8.624;2023-05-17T05:03:09;9.30;99.90
62555;DHT22;48610;52.144;8.624;2023-05-17T05:06:10;9.30;99.90
62555;DHT22;48610;52.144;8.624;2023-05-17T05:09:11;9.40;99.90
62555;DHT22;48610;52.144;8.624;2023-05-17T05:12:11;9.40;99.90
62555;DHT22;48610;52.144;8.624;2023-05-17T05:15:12;9.50;99.90
62555;DHT22;48610;52.144;8.624;2023-05-17T05:18:13;9.40;99.90
62555;DHT22;48610;52.144;8.624;2023-05-17T05:21:13;9.50;99.90
62555;DHT22;48610;52.144;8.624;2023-05-17T05:24:14;9.60;99.90
62555;DHT22;48610;52.144;8.624;2023-05-17T05:27:14;9.70;99.90
62555;DHT22;48610;52.144;8.624;2023-05-17T05:30:15;9.90;99.90
62555;DHT22;48610;52.144;8.624;2023-05-17T05:33:21;9.70;99.90
62555;DHT22;48610;52.144;8.624;2023-05-17T05:36:21;9.60;99.90
62555;DHT22;48610;52.144;8.624;2023-05-17T05:39:22;9.70;99.90
62555;DHT22;48610;52.144;8.624;2023-05-17T05:42:22;9.80;99.90
62555;DHT22;48610;52.144;8.624;2023-05-17T05:45:23;9.80;99.90
62555;DHT22;48610;52.144;8.624;2023-05-17T05:48:23;9.80;99.90
62555;DHT22;48610;52.144;8.624;2023-05-17T05:51:24;9.90;99.90
62555;DHT22;48610;52.144;8.624;2023-05-17T05:54:25;9.70;99.90
62555;DHT22;48610;52.144;8.624;2023-05-17T05:57:25;9.70;99.90
62555;DHT22;48610;52.144;8.624;2023-05-17T06:00:26;9.80;99.90
62555;DHT22;48610;52.144;8.624;2023-05-17T06:03:26;9.80;99.90
62555;DHT22;48610;52.144;8.624;2023-05-17T06:06:27;10.00;99.90
62555;DHT22;48610;52.144;8.624;2023-05-17T06:09:27;9.90;99.90
62555;DHT22;48610;52.144;8.624;2023-05-17T06:12:28;10.00;99.90
62555;DHT22;48610;52.144;8.624;2023-05-17T06:15:30;10.10;99.90
62555;DHT22;48610;52.144;8.624;2023-05-17T06:18:31;10.30;99.90
62555;DHT22;48610;52.144;8.624;2023-05-17T06:21:32;10.40;99.90
62555;DHT22;48610;52.144;8.624;2023-05-17T06:24:32;10.20;99.90
62555;DHT22;48610;52.144;8.624;2023-05-17T06:27:33;10.30;99.90
62555;DHT22;48610;52.144;8.624;2023-05-17T06:30:34;10.50;99.90
62555;DHT22;48610;52.144;8.624;2023-05-17T06:33:35;10.50;99.90
62555;DHT22;48610;52.144;8.624;2023-05-17T06:36:36;10.60;99.90
62555;DHT22;48610;52.144;8.624;2023-05-17T06:39:36;10.40;99.90
62555;DHT22;48610;52.144;8.624;2023-05-17T06:42:37;10.30;99.90
62555;DHT22;48610;52.144;8.624;2023-05-17T06:45:37;10.30;99.90
62555;DHT22;48610;52.144;8.624;2023-05-17T06:48:38;10.20;99.90
62555;DHT22;48610;52.144;8.624;2023-05-17T06:51:38;10.10;99.90
62555;DHT22;48610;52.144;8.624;2023-05-17T06:54:39;9.90;99.90
62555;DHT22;48610;52.144;8.624;2023-05-17T06:57:39;10.10;99.90
62555;DHT22;48610;52.144;8.624;2023-05-17T07:00:40;10.10;99.90
62555;DHT22;48610;52.144;8.624;2023-05-17T07:03:40;10.20;99.90
62555;DHT22;48610;52.144;8.624;2023-05-17T07:06:41;10.60;99.90
62555;DHT22;48610;52.144;8.624;2023-05-17T07:09:42;10.70;99.90
62555;DHT22;48610;52.144;8.624;2023-05-17T07:12:42;10.60;99.90
62555;DHT22;48610;52.144;8.624;2023-05-17T07:15:43;10.80;99.90
62555;DHT22;48610;52.144;8.624;2023-05-17T07:18:44;10.60;99.90
62555;DHT22;48610;52.144;8.624;2023-05-17T07:21:44;10.70;99.90
62555;DHT22;48610;52.144;8.624;2023-05-17T07:24:45;10.60;99.90
62555;DHT22;48610;52.144;8.624;2023-05-17T07:27:46;10.50;99.90
62555;DHT22;48610;52.144;8.624;2023-05-17T07:30:46;10.70;99.90
62555;DHT22;48610;52.144;8.624;2023-05-17T07:33:47;11.00;99.90
62555;DHT22;48610;52.144;8.624;2023-05-17T07:36:48;10.90;99.90
62555;DHT22;48610;52.144;8.624;2023-05-17T07:39:48;10.50;99.90
62555;DHT22;48610;52.144;8.624;2023-05-17T07:42:49;10.90;99.90
62555;DHT22;48610;52.144;8.624;2023-05-17T07:45:50;11.10;99.90
62555;DHT22;48610;52.144;8.624;2023-05-17T07:48:50;11.20;99.90
62555;DHT22;48610;52.144;8.624;2023-05-17T07:51:51;11.60;99.90
62555;DHT22;48610;52.144;8.624;2023-05-17T07:54:52;11.60;99.90
62555;DHT22;48610;52.144;8.624;2023-05-17T07:57:52;11.40;99.60
62555;DHT22;48610;52.144;8.624;2023-05-17T08:00:53;11.30;99.20
62555;DHT22;48610;52.144;8.624;2023-05-17T08:03:54;11.30;98.60
62555;DHT22;48610;52.144;8.624;2023-05-17T08:06:54;11.20;99.00
62555;DHT22;48610;52.144;8.624;2023-05-17T08:09:55;11.50;98.30
62555;DHT22;48610;52.144;8.624;2023-05-17T08:12:55;11.80;98.60
62555;DHT22;48610;52.144;8.624;2023-05-17T08:15:56;11.70;97.60
62555;DHT22;48610;52.144;8.624;2023-05-17T08:19:01;11.50;98.90
62555;DHT22;48610;52.144;8.624;2023-05-17T08:22:02;11.40;99.90
62555;DHT22;48610;52.144;8.624;2023-05-17T08:25:03;11.30;99.90
62555;DHT22;48610;52.144;8.624;2023-05-17T08:28:03;11.30;99.90
62555;DHT22;48610;52.144;8.624;2023-05-17T08:31:05;11.40;99.50
62555;DHT22;48610;52.144;8.624;2023-05-17T08:34:05;11.50;99.10
62555;DHT22;48610;52.144;8.624;2023-05-17T08:37:06;11.20;99.30
62555;DHT22;48610;52.144;8.624;2023-05-17T08:40:07;11.50;98.20
62555;DHT22;48610;52.144;8.624;2023-05-17T08:43:10;11.70;98.00
62555;DHT22;48610;52.144;8.624;2023-05-17T08:46:13;11.60;96.50
62555;DHT22;48610;52.144;8.624;2023-05-17T08:49:15;11.50;96.90
62555;DHT22;48610;52.144;8.624;2023-05-17T08:52:16;11.50;98.40
62555;DHT22;48610;52.144;8.624;2023-05-17T08:55:17;11.80;98.40
62555;DHT22;48610;52.144;8.624;2023-05-17T08:58:20;11.60;96.60
62555;DHT22;48610;52.144;8.624;2023-05-17T09:01:20;11.80;96.70
62555;DHT22;48610;52.144;8.624;2023-05-17T09:04:22;11.70;97.20
62555;DHT22;48610;52.144;8.624;2023-05-17T09:07:23;11.80;98.00
62555;DHT22;48610;52.144;8.624;2023-05-17T09:10:24;11.70;98.10
62555;DHT22;48610;52.144;8.624;2023-05-17T09:13:25;11.70;98.40
62555;DHT22;48610;52.144;8.624;2023-05-17T09:16:34;11.90;98.20
62555;DHT22;48610;52.144;8.624;2023-05-17T09:19:42;12.00;96.30
62555;DHT22;48610;52.144;8.624;2023-05-17T09:22:43;12.00;95.40
62555;DHT22;48610;52.144;8.624;2023-05-17T09:25:48;12.20;96.30
62555;DHT22;48610;52.144;8.624;2023-05-17T09:28:49;12.10;95.80
62555;DHT22;48610;52.144;8.624;2023-05-17T09:31:51;12.10;96.30
62555;DHT22;48610;52.144;8.624;2023-05-17T09:34:52;12.30;96.30
62555;DHT22;48610;52.144;8.624;2023-05-17T09:37:53;12.50;95.80
62555;DHT22;48610;52.144;8.624;2023-05-17T09:40:53;12.30;95.10
62555;DHT22;48610;52.144;8.624;2023-05-17T09:44:01;12.40;95.10
62555;DHT22;48610;52.144;8.624;2023-05-17T09:47:03;12.30;93.60
62555;DHT22;48610;52.144;8.624;2023-05-17T09:50:03;12.60;96.40
62555;DHT22;48610;52.144;8.624;2023-05-17T09:53:09;12.70;96.40
62555;DHT22;48610;52.144;8.624;2023-05-17T09:56:21;12.90;95.40
62555;DHT22;48610;52.144;8.624;2023-05-17T09:59:25;12.70;94.00
62555;DHT22;48610;52.144;8.624;2023-05-17T10:02:30;12.30;93.10
62555;DHT22;48610;52.144;8.624;2023-05-17T10:05:32;12.50;93.30
62555;DHT22;48610;52.144;8.624;2023-05-17T10:08:33;12.80;91.70
62555;DHT22;48610;52.144;8.624;2023-05-17T10:11:36;13.50;90.90
62555;DHT22;48610;52.144;8.624;2023-05-17T10:14:37;13.70;91.30
62555;DHT22;48610;52.144;8.624;2023-05-17T10:17:38;13.90;89.10
62555;DHT22;48610;52.144;8.624;2023-05-17T10:20:42;14.00;88.10
62555;DHT22;48610;52.144;8.624;2023-05-17T10:23:43;14.00;86.50
62555;DHT22;48610;52.144;8.624;2023-05-17T10:26:50;14.20;85.50
62555;DHT22;48610;52.144;8.624;2023-05-17T10:29:52;14.40;85.20
62555;DHT22;48610;52.144;8.624;2023-05-17T10:32:52;14.40;83.50
62555;DHT22;48610;52.144;8.624;2023-05-17T10:35:54;14.40;84.90
62555;DHT22;48610;52.144;8.624;2023-05-17T10:38:55;14.70;86.40
62555;DHT22;48610;52.144;8.624;2023-05-17T10:41:57;14.90;84.30
62555;DHT22;48610;52.144;8.624;2023-05-17T10:45:00;14.90;87.40
62555;DHT22;48610;52.144;8.624;2023-05-17T10:48:04;14.10;86.00
62555;DHT22;48610;52.144;8.624;2023-05-17T10:51:08;13.70;89.00
62555;DHT22;48610;52.144;8.624;2023-05-17T10:54:12;13.80;87.70
62555;DHT22;48610;52.144;8.624;2023-05-17T10:57:34;13.90;87.90
62555;DHT22;48610;52.144;8.624;2023-05-17T11:03:47;13.70;85.00
62555;DHT22;48610;52.144;8.624;2023-05-17T11:06:47;13.60;88.00
62555;DHT22;48610;52.144;8.624;2023-05-17T11:09:50;14.30;86.70
62555;DHT22;48610;52.144;8.624;2023-05-17T11:12:51;14.30;88.10
62555;DHT22;48610;52.144;8.624;2023-05-17T11:16:06;13.90;86.40
62555;DHT22;48610;52.144;8.624;2023-05-17T11:19:08;14.20;90.00
62555;DHT22;48610;52.144;8.624;2023-05-17T11:22:10;14.60;88.30
62555;DHT22;48610;52.144;8.624;2023-05-17T11:25:13;14.60;86.40
62555;DHT22;48610;52.144;8.624;2023-05-17T11:28:18;15.30;85.00
62555;DHT22;48610;52.144;8.624;2023-05-17T11:31:28;14.60;81.80
62555;DHT22;48610;52.144;8.624;2023-05-17T11:34:32;14.50;85.30
62555;DHT22;48610;52.144;8.624;2023-05-17T11:37:33;14.50;85.50
62555;DHT22;48610;52.144;8.624;2023-05-17T11:40:33;14.80;88.20
62555;DHT22;48610;52.144;8.624;2023-05-17T11:43:34;14.10;86.90
62555;DHT22;48610;52.144;8.624;2023-05-17T11:46:36;13.80;86.50
62555;DHT22;48610;52.144;8.624;2023-05-17T11:49:38;13.80;89.30
62555;DHT22;48610;52.144;8.624;2023-05-17T11:52:39;14.50;84.50
62555;DHT22;48610;52.144;8.624;2023-05-17T11:55:45;14.80;85.50
62555;DHT22;48610;52.144;8.624;2023-05-17T11:58:51;14.30;83.20
62555;DHT22;48610;52.144;8.624;2023-05-17T12:01:54;14.00;86.20
62555;DHT22;48610;52.144;8.624;2023-05-17T12:04:55;14.70;89.10
62555;DHT22;48610;52.144;8.624;2023-05-17T12:07:56;15.00;84.90
62555;DHT22;48610;52.144;8.624;2023-05-17T12:10:57;14.20;85.00
62555;DHT22;48610;52.144;8.624;2023-05-17T12:13:58;13.90;85.70
62555;DHT22;48610;52.144;8.624;2023-05-17T12:17:02;13.70;87.30
62555;DHT22;48610;52.144;8.624;2023-05-17T12:20:08;14.40;86.80
62555;DHT22;48610;52.144;8.624;2023-05-17T12:23:09;14.30;85.30
62555;DHT22;48610;52.144;8.624;2023-05-17T12:26:11;14.30;84.70
62555;DHT22;48610;52.144;8.624;2023-05-17T12:29:13;14.50;84.80
62555;DHT22;48610;52.144;8.624;2023-05-17T12:32:18;14.90;84.60
62555;DHT22;48610;52.144;8.624;2023-05-17T12:35:19;14.60;83.40
62555;DHT22;48610;52.144;8.624;2023-05-17T12:38:20;14.60;85.90
62555;DHT22;48610;52.144;8.624;2023-05-17T12:41:22;14.90;84.80
62555;DHT22;48610;52.144;8.624;2023-05-17T12:44:25;14.40;83.30
62555;DHT22;48610;52.144;8.624;2023-05-17T12:47:32;14.30;85.50
62555;DHT22;48610;52.144;8.624;2023-05-17T12:50:32;14.90;84.60
62555;DHT22;48610;52.144;8.624;2023-05-17T12:53:34;15.10;85.50
62555;DHT22;48610;52.144;8.624;2023-05-17T12:56:36;15.00;81.60
62555;DHT22;48610;52.144;8.624;2023-05-17T12:59:48;15.30;87.90
62555;DHT22;48610;52.144;8.624;2023-05-17T13:02:49;15.40;81.50
62555;DHT22;48610;52.144;8.624;2023-05-17T13:06:03;15.50;80.80
62555;DHT22;48610;52.144;8.624;2023-05-17T13:09:05;15.40;80.70
62555;DHT22;48610;52.144;8.624;2023-05-17T13:12:06;15.40;80.00
62555;DHT22;48610;52.144;8.624;2023-05-17T13:15:07;15.00;82.40
62555;DHT22;48610;52.144;8.624;2023-05-17T13:18:12;14.70;82.20
62555;DHT22;48610;52.144;8.624;2023-05-17T13:21:14;14.90;84.20
62555;DHT22;48610;52.144;8.624;2023-05-17T13:24:15;15.40;81.50
62555;DHT22;48610;52.144;8.624;2023-05-17T13:27:16;15.60;81.00
62555;DHT22;48610;52.144;8.624;2023-05-17T13:30:18;15.30;78.70
62555;DHT22;48610;52.144;8.624;2023-05-17T13:33:18;14.90;82.00
62555;DHT22;48610;52.144;8.624;2023-05-17T13:36:19;14.90;79.50
62555;DHT22;48610;52.144;8.624;2023-05-17T13:39:19;14.90;81.00
62555;DHT22;48610;52.144;8.624;2023-05-17T13:42:21;14.80;81.50
62555;DHT22;48610;52.144;8.624;2023-05-17T13:45:22;15.00;83.10
62555;DHT22;48610;52.144;8.624;2023-05-17T13:48:23;15.20;84.40
62555;DHT22;48610;52.144;8.624;2023-05-17T13:51:24;15.20;80.70
62555;DHT22;48610;52.144;8.624;2023-05-17T13:54:24;15.50;83.40
62555;DHT22;48610;52.144;8.624;2023-05-17T13:57:25;14.90;81.10
62555;DHT22;48610;52.144;8.624;2023-05-17T14:00:30;14.50;82.00
62555;DHT22;48610;52.144;8.624;2023-05-17T14:03:31;14.40;84.30
62555;DHT22;48610;52.144;8.624;2023-05-17T14:06:31;14.40;84.70
62555;DHT22;48610;52.144;8.624;2023-05-17T14:09:32;14.60;83.30
62555;DHT22;48610;52.144;8.624;2023-05-17T14:12:34;14.30;83.60
62555;DHT22;48610;52.144;8.624;2023-05-17T14:15:34;14.20;84.40
62555;DHT22;48610;52.144;8.624;2023-05-17T14:18:37;14.50;86.60
62555;DHT22;48610;52.144;8.624;2023-05-17T14:21:38;14.80;83.00
62555;DHT22;48610;52.144;8.624;2023-05-17T14:24:38;15.20;84.20
62555;DHT22;48610;52.144;8.624;2023-05-17T14:27:39;14.90;84.00
62555;DHT22;48610;52.144;8.624;2023-05-17T14:30:40;14.60;83.40
62555;DHT22;48610;52.144;8.624;2023-05-17T14:33:41;14.20;82.90
62555;DHT22;48610;52.144;8.624;2023-05-17T14:36:41;14.20;81.70
62555;DHT22;48610;52.144;8.624;2023-05-17T14:39:42;14.00;81.50
62555;DHT22;48610;52.144;8.624;2023-05-17T14:42:42;13.70;83.10
62555;DHT22;48610;52.144;8.624;2023-05-17T14:45:43;13.40;83.60
62555;DHT22;48610;52.144;8.624;2023-05-17T14:48:43;13.60;85.10
62555;DHT22;48610;52.144;8.624;2023-05-17T14:51:44;13.80;86.80
62555;DHT22;48610;52.144;8.624;2023-05-17T14:54:44;13.70;89.10
62555;DHT22;48610;52.144;8.624;2023-05-17T14:57:45;13.90;85.70
62555;DHT22;48610;52.144;8.624;2023-05-17T15:00:46;13.80;84.30
62555;DHT22;48610;52.144;8.624;2023-05-17T15:03:47;13.60;84.80
62555;DHT22;48610;52.144;8.624;2023-05-17T15:06:47;13.70;84.20
62555;DHT22;48610;52.144;8.624;2023-05-17T15:09:48;14.00;87.40
62555;DHT22;48610;52.144;8.624;2023-05-17T15:12:49;14.20;84.10
62555;DHT22;48610;52.144;8.624;2023-05-17T15:15:49;14.20;84.60
62555;DHT22;48610;52.144;8.624;2023-05-17T15:18:51;14.30;82.60
62555;DHT22;48610;52.144;8.624;2023-05-17T15:21:52;14.30;81.70
62555;DHT22;48610;52.144;8.624;2023-05-17T15:24:52;14.40;82.80
62555;DHT22;48610;52.144;8.624;2023-05-17T15:27:53;14.50;81.90
62555;DHT22;48610;52.144;8.624;2023-05-17T15:31:01;14.10;80.00
62555;DHT22;48610;52.144;8.624;2023-05-17T15:34:02;14.20;81.70
62555;DHT22;48610;52.144;8.624;2023-05-17T15:37:02;14.50;83.00
62555;DHT22;48610;52.144;8.624;2023-05-17T15:40:07;14.40;84.00
62555;DHT22;48610;52.144;8.624;2023-05-17T15:43:08;14.50;83.40
62555;DHT22;48610;52.144;8.624;2023-05-17T15:46:09;14.20;81.90
62555;DHT22;48610;52.144;8.624;2023-05-17T15:49:11;14.10;83.30
62555;DHT22;48610;52.144;8.624;2023-05-17T15:52:11;14.00;82.20
62555;DHT22;48610;52.144;8.624;2023-05-17T15:55:12;14.00;83.80
62555;DHT22;48610;52.144;8.624;2023-05-17T15:58:12;13.80;83.50
62555;DHT22;48610;52.144;8.624;2023-05-17T16:01:13;13.60;84.50
62555;DHT22;48610;52.144;8.624;2023-05-17T16:04:14;13.50;82.90
62555;DHT22;48610;52.144;8.624;2023-05-17T16:07:15;13.70;84.50
62555;DHT22;48610;52.144;8.624;2023-05-17T16:10:16;13.80;83.10
62555;DHT22;48610;52.144;8.624;2023-05-17T16:13:16;13.90;82.00
62555;DHT22;48610;52.144;8.624;2023-05-17T16:16:17;13.80;82.50
62555;DHT22;48610;52.144;8.624;2023-05-17T16:19:17;13.50;81.50
62555;DHT22;48610;52.144;8.624;2023-05-17T16:22:18;13.70;81.90
62555;DHT22;48610;52.144;8.624;2023-05-17T16:25:21;13.80;81.10
62555;DHT22;48610;52.144;8.624;2023-05-17T16:28:22;13.80;83.30
62555;DHT22;48610;52.144;8.624;2023-05-17T16:31:23;13.90;83.90
62555;DHT22;48610;52.144;8.624;2023-05-17T16:34:24;14.00;83.50
62555;DHT22;48610;52.144;8.624;2023-05-17T16:37:26;14.10;83.20
62555;DHT22;48610;52.144;8.624;2023-05-17T16:40:27;14.10;82.80
62555;DHT22;48610;52.144;8.624;2023-05-17T16:43:28;14.10;83.40
62555;DHT22;48610;52.144;8.624;2023-05-17T16:46:29;13.90;82.60
62555;DHT22;48610;52.144;8.624;2023-05-17T16:49:29;13.60;82.80
62555;DHT22;48610;52.144;8.624;2023-05-17T16:52:30;13.30;82.80
62555;DHT22;48610;52.144;8.624;2023-05-17T16:55:31;13.60;83.90
62555;DHT22;48610;52.144;8.624;2023-05-17T16:58:31;13.60;82.30
62555;DHT22;48610;52.144;8.624;2023-05-17T17:01:32;13.30;83.10
62555;DHT22;48610;52.144;8.624;2023-05-17T17:04:33;13.50;83.10
62555;DHT22;48610;52.144;8.624;2023-05-17T17:07:34;13.70;82.50
62555;DHT22;48610;52.144;8.624;2023-05-17T17:10:34;13.60;82.60
62555;DHT22;48610;52.144;8.624;2023-05-17T17:13:35;13.50;84.30
62555;DHT22;48610;52.144;8.624;2023-05-17T17:16:36;13.80;83.10
62555;DHT22;48610;52.144;8.624;2023-05-17T17:19:37;13.70;81.80
62555;DHT22;48610;52.144;8.624;2023-05-17T17:22:38;13.80;82.70
62555;DHT22;48610;52.144;8.624;2023-05-17T17:25:39;13.80;82.90
62555;DHT22;48610;52.144;8.624;2023-05-17T17:28:40;13.80;84.70
62555;DHT22;48610;52.144;8.624;2023-05-17T17:31:40;13.80;83.80
62555;DHT22;48610;52.144;8.624;2023-05-17T17:34:41;13.80;83.60
62555;DHT22;48610;52.144;8.624;2023-05-17T17:37:42;13.80;83.10
62555;DHT22;48610;52.144;8.624;2023-05-17T17:40:42;13.80;83.00
62555;DHT22;48610;52.144;8.624;2023-05-17T17:43:43;13.50;82.50
62555;DHT22;48610;52.144;8.624;2023-05-17T17:46:46;13.50;83.80
62555;DHT22;48610;52.144;8.624;2023-05-17T17:49:46;13.50;85.90
62555;DHT22;48610;52.144;8.624;2023-05-17T17:52:48;13.30;86.80
62555;DHT22;48610;52.144;8.624;2023-05-17T17:55:49;13.40;86.50
62555;DHT22;48610;52.144;8.624;2023-05-17T17:58:50;13.20;86.40
62555;DHT22;48610;52.144;8.624;2023-05-17T18:01:55;13.00;88.20
62555;DHT22;48610;52.144;8.624;2023-05-17T18:04:55;12.90;90.00
62555;DHT22;48610;52.144;8.624;2023-05-17T18:07:56;12.90;89.00
62555;DHT22;48610;52.144;8.624;2023-05-17T18:10:57;12.90;90.50
62555;DHT22;48610;52.144;8.624;2023-05-17T18:13:57;12.80;90.60
62555;DHT22;48610;52.144;8.624;2023-05-17T18:16:58;12.70;90.90
62555;DHT22;48610;52.144;8.624;2023-05-17T18:19:58;12.70;91.20
62555;DHT22;48610;52.144;8.624;2023-05-17T18:22:59;12.60;91.70
62555;DHT22;48610;52.144;8.624;2023-05-17T18:26:01;12.70;91.80
62555;DHT22;48610;52.144;8.624;2023-05-17T18:29:01;12.80;91.70
62555;DHT22;48610;52.144;8.624;2023-05-17T18:32:03;12.50;91.60
62555;DHT22;48610;52.144;8.624;2023-05-17T18:35:04;12.50;92.10
62555;DHT22;48610;52.144;8.624;2023-05-17T18:38:05;12.20;91.90
62555;DHT22;48610;52.144;8.624;2023-05-17T18:41:05;12.20;92.60
62555;DHT22;48610;52.144;8.624;2023-05-17T18:44:06;12.20;92.40
62555;DHT22;48610;52.144;8.624;2023-05-17T18:47:07;12.00;92.00
62555;DHT22;48610;52.144;8.624;2023-05-17T18:50:08;11.70;91.90
62555;DHT22;48610;52.144;8.624;2023-05-17T18:53:08;11.60;92.70
62555;DHT22;48610;52.144;8.624;2023-05-17T18:56:09;11.60;92.70
62555;DHT22;48610;52.144;8.624;2023-05-17T18:59:09;11.60;92.50
62555;DHT22;48610;52.144;8.624;2023-05-17T19:02:10;11.60;92.90
62555;DHT22;48610;52.144;8.624;2023-05-17T19:05:11;11.40;93.30
62555;DHT22;48610;52.144;8.624;2023-05-17T19:08:11;11.30;93.50
62555;DHT22;48610;52.144;8.624;2023-05-17T19:11:12;11.20;94.40
62555;DHT22;48610;52.144;8.624;2023-05-17T19:14:13;11.20;94.20
62555;DHT22;48610;52.144;8.624;2023-05-17T19:17:14;11.00;95.00
62555;DHT22;48610;52.144;8.624;2023-05-17T19:20:15;10.90;94.90
62555;DHT22;48610;52.144;8.624;2023-05-17T19:23:15;10.90;95.60
62555;DHT22;48610;52.144;8.624;2023-05-17T19:26:16;10.80;97.50
62555;DHT22;48610;52.144;8.624;2023-05-17T19:29:17;10.70;97.40